createdAt,value
2023-07-03T00:01:17.765Z,97011.60
2023-07-03T00:04:47.198Z,97010.40
2023-07-03T00:08:19.437Z,97015.20
2023-07-03T00:11:54.749Z,97011.20
2023-07-03T00:15:43.893Z,97008.60
2023-07-03T00:19:07.188Z,97007.40
2023-07-03T00:22:56.164Z,97016.00
2023-07-03T00:26:10.829Z,97022.60
2023-07-03T00:29:59.935Z,97032.60
2023-07-03T00:33:31.713Z,97026.20
2023-07-03T00:37:19.703Z,97026.40
2023-07-03T00:40:48.957Z,97024.40
2023-07-03T00:44:06.069Z,97023.60
2023-07-03T00:47:41.077Z,97022.20
2023-07-03T00:50:51.607Z,97024.40
2023-07-03T00:54:23.649Z,97030.80
2023-07-03T00:57:31.183Z,97031.80
2023-07-03T01:01:00.022Z,97033.00
2023-07-03T01:03:40.530Z,97036.20
2023-07-03T01:07:10.229Z,97037.80
2023-07-03T01:10:47.951Z,97037.80
2023-07-03T01:14:09.011Z,97038.40
2023-07-03T01:17:21.335Z,97037.60
2023-07-03T01:20:19.234Z,97040.00
2023-07-03T01:23:54.773Z,97038.00
2023-07-03T01:27:18.380Z,97041.00
2023-07-03T01:30:23.388Z,97041.80
2023-07-03T01:33:45.689Z,97045.00
2023-07-03T01:36:57.525Z,97048.60
2023-07-03T01:40:22.751Z,97046.60
2023-07-03T01:43:45.042Z,97048.00
2023-07-03T01:46:56.272Z,97053.00
2023-07-03T01:49:41.864Z,97059.60
2023-07-03T01:52:41.428Z,97058.80
2023-07-03T01:55:45.176Z,97063.20
2023-07-03T01:58:33.680Z,97067.20
2023-07-03T02:01:04.627Z,97066.80
2023-07-03T02:04:28.333Z,97067.40
2023-07-03T02:07:06.458Z,97074.20
2023-07-03T02:09:54.768Z,97080.80
2023-07-03T02:12:22.970Z,97084.00
2023-07-03T02:14:53.807Z,97083.80
2023-07-03T02:17:46.979Z,97087.20
2023-07-03T02:20:47.336Z,97086.80
2023-07-03T02:24:08.808Z,97083.00
2023-07-03T02:27:45.281Z,97085.60
2023-07-03T02:31:17.636Z,97088.20
2023-07-03T02:34:46.674Z,97091.40
2023-07-03T02:38:14.314Z,97096.80
2023-07-03T02:42:03.368Z,97099.20
2023-07-03T02:45:52.949Z,97104.40
2023-07-03T02:49:22.632Z,97106.20
2023-07-03T02:52:53.487Z,97108.40
2023-07-03T02:56:22.515Z,97112.80
2023-07-03T03:00:11.727Z,97115.60
2023-07-03T03:04:00.866Z,97118.40
2023-07-03T03:07:39.823Z,97119.40
2023-07-03T03:11:29.070Z,97121.00
2023-07-03T03:15:09.983Z,97119.80
2023-07-03T03:18:59.102Z,97123.80
2023-07-03T03:22:30.731Z,97118.80
2023-07-03T03:26:02.114Z,97114.00
2023-07-03T03:29:34.318Z,97111.40
2023-07-03T03:33:14.225Z,97115.40
2023-07-03T03:36:54.791Z,97125.00
2023-07-03T03:40:43.957Z,97123.40
2023-07-03T03:44:33.020Z,97119.20
2023-07-03T03:48:22.160Z,97120.20
2023-07-03T03:52:01.161Z,97120.20
2023-07-03T03:55:50.451Z,97120.80
2023-07-03T03:59:39.958Z,97127.40
2023-07-03T04:03:29.163Z,97128.60
2023-07-03T04:07:20.161Z,97132.80
2023-07-03T04:10:59.179Z,97136.60
2023-07-03T04:14:48.417Z,97139.40
2023-07-03T04:18:36.795Z,97134.60
2023-07-03T04:22:26.095Z,97139.60
2023-07-03T04:26:14.030Z,97142.60
2023-07-03T04:29:46.288Z,97142.80
2023-07-03T04:33:35.391Z,97147.20
2023-07-03T04:37:24.438Z,97144.40
2023-07-03T04:41:13.345Z,97155.20
2023-07-03T04:44:55.062Z,97154.40
2023-07-03T04:48:44.154Z,97163.00
2023-07-03T04:52:16.259Z,97158.20
2023-07-03T04:55:39.603Z,97156.00
2023-07-03T04:59:28.753Z,97157.20
2023-07-03T05:02:47.662Z,97161.20
2023-07-03T05:06:29.874Z,97167.00
2023-07-03T05:10:08.918Z,97170.80
2023-07-03T05:13:47.851Z,97169.40
2023-07-03T05:17:26.910Z,97176.20
2023-07-03T05:21:09.303Z,97180.20
2023-07-03T05:25:07.168Z,97183.80
2023-07-03T05:28:39.392Z,97189.20
2023-07-03T05:32:01.844Z,97189.80
2023-07-03T05:35:52.848Z,97192.80
2023-07-03T05:39:32.909Z,97196.20
2023-07-03T05:43:21.930Z,97197.20
2023-07-03T05:46:50.913Z,97193.40
2023-07-03T05:50:40.009Z,97189.40
2023-07-03T05:54:08.893Z,97196.20
2023-07-03T05:57:46.642Z,97194.80
2023-07-03T06:01:21.825Z,97195.80
2023-07-03T06:04:39.412Z,97201.20
2023-07-03T06:07:57.533Z,97208.00
2023-07-03T06:11:38.071Z,97214.80
2023-07-03T06:15:07.187Z,97211.60
2023-07-03T06:18:27.727Z,97214.60
2023-07-03T06:22:02.237Z,97216.20
2023-07-03T06:25:31.157Z,97213.00
2023-07-03T06:29:12.074Z,97214.20
2023-07-03T06:32:25.377Z,97221.00
2023-07-03T06:35:44.471Z,97220.40
2023-07-03T06:38:47.420Z,97222.60
2023-07-03T06:41:44.269Z,97222.40
2023-07-03T06:45:22.122Z,97223.20
2023-07-03T06:48:46.208Z,97222.20
2023-07-03T06:52:23.790Z,97219.60
2023-07-03T06:55:35.811Z,97225.60
2023-07-03T06:58:32.785Z,97223.00
2023-07-03T07:01:42.275Z,97224.40
2023-07-03T07:05:17.642Z,97224.20
2023-07-03T07:08:06.428Z,97220.00
2023-07-03T07:11:00.979Z,97222.60
2023-07-03T07:14:19.048Z,97220.40
2023-07-03T07:17:51.051Z,97226.80
2023-07-03T07:21:11.089Z,97224.40
2023-07-03T07:24:11.695Z,97223.20
2023-07-03T07:27:29.311Z,97220.60
2023-07-03T07:30:48.734Z,97224.60
2023-07-03T07:33:49.686Z,97226.40
2023-07-03T07:37:18.541Z,97227.20
2023-07-03T07:40:38.965Z,97224.40
2023-07-03T07:43:40.612Z,97224.80
2023-07-03T07:46:43.071Z,97226.00
2023-07-03T07:49:57.175Z,97225.40
2023-07-03T07:52:48.880Z,97229.40
2023-07-03T07:56:00.198Z,97226.60
2023-07-03T07:59:06.690Z,97228.40
2023-07-03T08:02:24.700Z,97232.20
2023-07-03T08:05:54.074Z,97229.20
2023-07-03T08:08:55.809Z,97228.40
2023-07-03T08:12:13.530Z,97229.60
2023-07-03T08:15:05.343Z,97232.60
2023-07-03T08:18:18.530Z,97229.00
2023-07-03T08:21:15.934Z,97227.40
2023-07-03T08:24:12.351Z,97231.80
2023-07-03T08:27:27.081Z,97241.80
2023-07-03T08:30:03.496Z,97237.60
2023-07-03T08:33:15.344Z,97235.80
2023-07-03T08:38:52.810Z,97236.60
2023-07-03T08:41:57.227Z,97235.20
2023-07-03T08:44:34.549Z,97230.60
2023-07-03T08:47:54.078Z,97231.40
2023-07-03T08:50:43.913Z,97234.80
2023-07-03T08:53:49.746Z,97229.60
2023-07-03T08:56:36.297Z,97236.00
2023-07-03T08:59:07.625Z,97233.60
2023-07-03T09:02:37.734Z,97231.60
2023-07-03T09:05:51.998Z,97233.80
2023-07-03T09:08:35.844Z,97229.00
2023-07-03T09:11:20.784Z,97222.80
2023-07-03T09:13:59.298Z,97229.00
2023-07-03T09:16:35.231Z,97229.20
2023-07-03T09:19:45.753Z,97232.40
2023-07-03T09:22:51.880Z,97232.20
2023-07-03T09:25:30.977Z,97236.80
2023-07-03T09:28:01.847Z,97226.40
2023-07-03T09:30:40.553Z,97226.80
2023-07-03T09:33:14.797Z,97230.60
2023-07-03T09:35:46.626Z,97228.20
2023-07-03T09:38:37.898Z,97226.00
2023-07-03T09:41:06.088Z,97225.60
2023-07-03T09:43:57.929Z,97225.00
2023-07-03T09:46:28.953Z,97227.80
2023-07-03T09:49:32.216Z,97235.80
2023-07-03T09:52:21.032Z,97230.40
2023-07-03T09:54:52.047Z,97226.60
2023-07-03T09:57:46.243Z,97220.60
2023-07-03T10:00:39.695Z,97229.60
2023-07-03T10:08:40.572Z,97220.20
2023-07-03T10:11:11.835Z,97227.80
2023-07-03T10:14:00.954Z,97217.60
2023-07-03T10:16:31.661Z,97229.60
2023-07-03T10:19:00.231Z,97230.40
2023-07-03T10:21:48.686Z,97231.60
2023-07-03T10:24:17.176Z,97227.40
2023-07-03T10:26:54.688Z,97234.60
2023-07-03T10:29:29.874Z,97238.40
2023-07-03T10:32:14.378Z,97238.00
2023-07-03T10:35:25.837Z,97232.20
2023-07-03T10:38:15.947Z,97233.80
2023-07-03T10:40:58.842Z,97233.60
2023-07-03T10:43:40.536Z,97234.20
2023-07-03T10:46:30.519Z,97231.80
2023-07-03T10:49:27.979Z,97230.80
2023-07-03T10:52:31.854Z,97229.80
2023-07-03T10:55:07.032Z,97223.80
2023-07-03T10:58:24.631Z,97231.40
2023-07-03T11:01:34.570Z,97223.40
2023-07-03T11:04:24.807Z,97214.60
2023-07-03T11:07:18.302Z,97221.20
2023-07-03T11:09:57.406Z,97212.80
2023-07-03T11:13:05.840Z,97225.00
2023-07-03T11:15:46.997Z,97221.60
2023-07-03T11:25:25.690Z,97214.80
2023-07-03T11:28:17.363Z,97219.00
2023-07-03T11:30:53.369Z,97224.40
2023-07-03T11:39:48.153Z,97220.00
2023-07-03T11:44:49.154Z,97223.80
2023-07-03T11:47:26.361Z,97218.60
2023-07-03T11:49:59.450Z,97216.40
2023-07-03T11:52:32.389Z,97215.00
2023-07-03T11:55:15.312Z,97213.40
2023-07-03T11:57:52.884Z,97209.40
2023-07-03T12:00:30.642Z,97217.20
2023-07-03T12:03:16.095Z,97212.80
2023-07-03T12:05:48.306Z,97210.60
2023-07-03T12:08:19.869Z,97220.60
2023-07-03T12:10:51.052Z,97214.00
2023-07-03T12:13:41.069Z,97207.40
2023-07-03T12:16:24.803Z,97208.00
2023-07-03T12:19:01.168Z,97213.80
2023-07-03T12:21:36.753Z,97216.60
2023-07-03T12:24:18.344Z,97218.80
2023-07-03T12:26:57.577Z,97220.40
2023-07-03T12:29:25.980Z,97224.60
2023-07-03T12:32:07.113Z,97224.80
2023-07-03T12:34:41.095Z,97221.20
2023-07-03T12:37:14.766Z,97220.60
2023-07-03T12:39:52.880Z,97222.40
2023-07-03T12:42:25.283Z,97221.00
2023-07-03T12:44:53.838Z,97219.00
2023-07-03T12:47:25.230Z,97222.20
2023-07-03T12:50:11.552Z,97225.20
2023-07-03T12:53:00.209Z,97219.60
2023-07-03T12:55:33.323Z,97222.00
2023-07-03T12:58:23.188Z,97220.00
2023-07-03T13:01:20.893Z,97220.40
2023-07-03T13:03:52.105Z,97217.20
2023-07-03T13:06:29.441Z,97215.00
2023-07-03T13:09:17.980Z,97217.20
2023-07-03T13:11:49.563Z,97218.00
2023-07-03T13:14:24.177Z,97216.80
2023-07-03T13:17:07.094Z,97224.60
2023-07-03T13:19:44.738Z,97220.00
2023-07-03T13:22:19.602Z,97214.80
2023-07-03T13:25:11.915Z,97215.40
2023-07-03T13:28:01.483Z,97214.60
2023-07-03T13:30:35.838Z,97214.80
2023-07-03T13:33:07.175Z,97208.40
2023-07-03T13:35:41.533Z,97209.40
2023-07-03T13:38:34.597Z,97214.60
2023-07-03T13:41:08.984Z,97214.20
2023-07-03T13:43:37.281Z,97211.40
2023-07-03T13:46:17.834Z,97213.60
2023-07-03T13:48:46.229Z,97217.00
2023-07-03T13:51:18.023Z,97220.80
2023-07-03T13:53:47.690Z,97217.60
2023-07-03T13:56:47.572Z,97222.40
2023-07-03T13:59:24.657Z,97229.20
2023-07-03T14:02:13.561Z,97223.40
2023-07-03T14:04:51.096Z,97219.60
2023-07-03T14:07:28.387Z,97207.60
2023-07-03T14:10:06.167Z,97210.40
2023-07-03T14:12:53.818Z,97215.20
2023-07-03T14:15:39.436Z,97209.80
2023-07-03T14:18:07.854Z,97214.00
2023-07-03T14:20:53.353Z,97207.00
2023-07-03T14:23:24.535Z,97216.40
2023-07-03T14:25:55.560Z,97216.00
2023-07-03T14:28:24.879Z,97218.20
2023-07-03T14:30:58.941Z,97213.40
2023-07-03T14:33:30.598Z,97209.80
2023-07-03T14:36:01.776Z,97205.60
2023-07-03T14:38:32.274Z,97198.00
2023-07-03T14:41:03.887Z,97199.80
2023-07-03T14:43:32.304Z,97206.00
2023-07-03T14:46:01.820Z,97204.80
2023-07-03T14:48:51.083Z,97201.80
2023-07-03T14:51:19.388Z,97197.80
2023-07-03T14:53:50.202Z,97202.20
2023-07-03T14:56:18.656Z,97197.80
2023-07-03T14:58:47.047Z,97199.40
2023-07-03T15:01:15.320Z,97193.80
2023-07-03T15:03:43.807Z,97202.20
2023-07-03T15:06:12.150Z,97205.00
2023-07-03T15:08:42.981Z,97210.40
2023-07-03T15:11:18.807Z,97206.80
2023-07-03T15:13:47.304Z,97215.20
2023-07-03T15:16:22.183Z,97220.00
2023-07-03T15:18:50.598Z,97226.00
2023-07-03T15:21:39.080Z,97220.00
2023-07-03T15:24:08.229Z,97222.60
2023-07-03T15:26:47.399Z,97219.60
2023-07-03T15:29:18.370Z,97218.00
2023-07-03T15:31:54.523Z,97219.20
2023-07-03T15:34:28.696Z,97219.40
2023-07-03T15:37:20.060Z,97216.40
2023-07-03T15:39:48.619Z,97221.80
2023-07-03T15:42:40.171Z,97228.00
2023-07-03T15:45:22.712Z,97232.20
2023-07-03T15:47:51.244Z,97231.80
2023-07-03T15:50:43.196Z,97235.20
2023-07-03T15:53:18.194Z,97239.00
2023-07-03T15:56:07.512Z,97239.80
2023-07-03T15:58:58.356Z,97240.60
2023-07-03T16:01:35.711Z,97237.00
2023-07-03T16:04:07.478Z,97238.20
2023-07-03T16:06:48.238Z,97237.20
2023-07-03T16:09:37.130Z,97238.60
2023-07-03T16:12:29.119Z,97238.80
2023-07-03T16:15:10.013Z,97241.40
2023-07-03T16:17:50.171Z,97245.20
2023-07-03T16:20:18.695Z,97240.60
2023-07-03T16:23:22.674Z,97242.00
2023-07-03T16:26:01.177Z,97243.40
2023-07-03T16:28:39.399Z,97246.80
2023-07-03T16:31:28.269Z,97245.20
2023-07-03T16:34:00.680Z,97247.20
2023-07-03T16:36:39.416Z,97254.60
2023-07-03T16:39:18.016Z,97247.60
2023-07-03T16:42:17.120Z,97249.00
2023-07-03T16:44:45.826Z,97256.00
2023-07-03T16:47:16.665Z,97258.40
2023-07-03T16:50:15.094Z,97256.80
2023-07-03T16:52:46.595Z,97262.80
2023-07-03T16:55:43.036Z,97264.60
2023-07-03T16:58:20.182Z,97264.20
2023-07-03T17:00:58.434Z,97266.60
2023-07-03T17:03:32.945Z,97277.40
2023-07-03T17:06:32.113Z,97282.00
2023-07-03T17:09:05.750Z,97281.00
2023-07-03T17:11:57.121Z,97284.20
2023-07-03T17:14:35.640Z,97283.40
2023-07-03T17:17:06.745Z,97285.00
2023-07-03T17:19:46.600Z,97288.60
2023-07-03T17:22:37.870Z,97293.20
2023-07-03T17:25:26.463Z,97292.00
2023-07-03T17:28:15.403Z,97291.00
2023-07-03T17:30:56.455Z,97295.80
2023-07-03T17:33:47.767Z,97290.40
2023-07-03T17:36:21.350Z,97296.00
2023-07-03T17:39:29.983Z,97297.60
2023-07-03T17:42:30.094Z,97297.40
2023-07-03T17:45:06.413Z,97297.60
2023-07-03T17:47:34.733Z,97296.60
2023-07-03T17:50:04.236Z,97306.00
2023-07-03T17:53:02.890Z,97302.60
2023-07-03T17:55:50.623Z,97303.60
2023-07-03T17:58:39.496Z,97303.40
2023-07-03T18:01:58.330Z,97305.60
2023-07-03T18:04:45.960Z,97307.40
2023-07-03T18:07:32.230Z,97305.80
2023-07-03T18:10:39.982Z,97316.20
2023-07-03T18:13:29.076Z,97314.00
2023-07-03T18:16:38.039Z,97315.40
2023-07-03T18:19:33.079Z,97316.40
2023-07-03T18:22:26.913Z,97320.00
2023-07-03T18:25:40.726Z,97324.80
2023-07-03T18:28:56.829Z,97326.00
2023-07-03T18:31:58.276Z,97323.20
2023-07-03T18:35:23.279Z,97324.20
2023-07-03T18:38:42.294Z,97328.40
2023-07-03T18:41:44.088Z,97338.40
2023-07-03T18:45:10.519Z,97346.00
2023-07-03T18:48:19.292Z,97350.00
2023-07-03T18:51:56.362Z,97355.20
2023-07-03T18:55:34.226Z,97358.60
2023-07-03T18:58:52.976Z,97363.20
2023-07-03T19:02:31.960Z,97368.20
2023-07-03T19:05:40.120Z,97368.40
2023-07-03T19:08:58.992Z,97371.40
2023-07-03T19:12:30.287Z,97372.20
2023-07-03T19:16:02.252Z,97372.60
2023-07-03T19:19:33.705Z,97381.80
2023-07-03T19:22:42.481Z,97380.60
2023-07-03T19:25:58.122Z,97385.40
2023-07-03T19:29:20.176Z,97386.60
2023-07-03T19:32:31.460Z,97386.00
2023-07-03T19:36:00.816Z,97392.20
2023-07-03T19:38:52.580Z,97392.00
2023-07-03T19:42:28.051Z,97391.60
2023-07-03T19:46:17.077Z,97396.80
2023-07-03T19:49:48.567Z,97400.40
2023-07-03T19:53:18.102Z,97406.40
2023-07-03T19:56:52.682Z,97409.40
2023-07-03T20:00:33.453Z,97402.20
2023-07-03T20:03:55.362Z,97404.60
2023-07-03T20:07:36.104Z,97407.80
2023-07-03T20:11:05.131Z,97416.80
2023-07-03T20:14:24.054Z,97411.20
2023-07-03T20:17:22.801Z,97409.40
2023-07-03T20:20:30.432Z,97405.60
2023-07-03T20:23:39.127Z,97410.00
2023-07-03T20:26:38.983Z,97410.60
2023-07-03T20:30:13.712Z,97410.60
2023-07-03T20:33:42.535Z,97407.80
2023-07-03T20:36:36.651Z,97412.20
2023-07-03T20:39:47.462Z,97419.60
2023-07-03T20:43:36.430Z,97420.20
2023-07-03T20:46:37.904Z,97420.40
2023-07-03T20:50:09.200Z,97420.20
2023-07-03T20:53:11.009Z,97420.80
2023-07-03T20:56:33.278Z,97421.20
2023-07-03T20:59:13.694Z,97423.40
2023-07-03T21:02:45.768Z,97429.40
2023-07-03T21:06:17.837Z,97427.20
2023-07-03T21:10:06.998Z,97429.40
2023-07-03T21:13:56.019Z,97428.20
2023-07-03T21:17:12.306Z,97429.60
2023-07-03T21:20:08.510Z,97429.80
2023-07-03T21:23:37.534Z,97430.20
2023-07-03T21:27:06.411Z,97428.80
2023-07-03T21:30:04.826Z,97433.00
2023-07-03T21:33:10.272Z,97438.80
2023-07-03T21:36:45.160Z,97444.20
2023-07-03T21:40:05.698Z,97444.80
2023-07-03T21:43:24.857Z,97440.40
2023-07-03T21:46:57.691Z,97447.00
2023-07-03T21:49:59.532Z,97449.80
2023-07-03T21:53:27.414Z,97453.80
2023-07-03T21:56:32.758Z,97449.60
2023-07-03T21:59:24.250Z,97447.00
2023-07-03T22:02:46.385Z,97450.20
2023-07-03T22:05:58.217Z,97449.60
2023-07-03T22:09:15.343Z,97449.40
2023-07-03T22:12:34.007Z,97451.20
2023-07-03T22:15:34.801Z,97453.20
2023-07-03T22:18:52.418Z,97453.60
2023-07-03T22:22:21.723Z,97447.60
2023-07-03T22:25:54.186Z,97446.00
2023-07-03T22:28:55.566Z,97439.80
2023-07-03T22:32:32.603Z,97439.60
2023-07-03T22:36:04.315Z,97435.60
2023-07-03T22:39:29.387Z,97440.00
2023-07-03T22:42:58.489Z,97440.40
2023-07-03T22:46:22.016Z,97445.60
2023-07-03T22:50:11.127Z,97447.20
2023-07-03T22:53:40.064Z,97454.40
2023-07-03T22:57:02.285Z,97456.40
2023-07-03T23:00:33.741Z,97456.60
2023-07-03T23:03:42.584Z,97452.60
2023-07-03T23:07:14.440Z,97454.60
2023-07-03T23:10:57.202Z,97451.20
2023-07-03T23:14:30.632Z,97448.00
2023-07-03T23:18:26.101Z,97444.60
2023-07-03T23:22:05.407Z,97445.20
2023-07-03T23:25:34.289Z,97444.80
2023-07-03T23:29:13.830Z,97444.40
2023-07-03T23:32:45.808Z,97442.40
2023-07-03T23:36:15.995Z,97452.60
2023-07-03T23:39:36.183Z,97453.80
2023-07-03T23:43:01.208Z,97447.60
2023-07-03T23:46:33.257Z,97448.80
2023-07-03T23:49:55.597Z,97449.40
2023-07-03T23:53:10.257Z,97453.20
2023-07-03T23:56:49.239Z,97459.00
